Time;durP1;ratioP1;P1;durP2;ratioP2;P2;SDS_P1;SDS_P2;PMS_P1;PMS_P2;Temp;Humidity;BMP_temperature;BMP_pressure;BME280_temperature;BME280_humidity;BME280_pressure;Samples;Min_cycle;Max_cycle;Signal;HPM_P1;HPM_P2
2023/06/30 00:00:57;;;;;;;6.72;4.10;;;;;;;18.29;100.00;100528.19;5052937;28;20057;-61
2023/06/30 00:03:24;;;;;;;8.88;4.88;;;;;;;18.31;100.00;100525.28;5052006;28;20044;-61
2023/06/30 00:05:51;;;;;;;5.40;4.20;;;;;;;18.31;100.00;100531.53;5053029;28;20064;-60
2023/06/30 00:08:18;;;;;;;6.07;4.28;;;;;;;18.34;100.00;100530.25;5052465;28;20045;-62
2023/06/30 00:10:45;;;;;;;7.60;5.20;;;;;;;18.30;100.00;100532.56;5052976;28;20452;-60
2023/06/30 00:13:12;;;;;;;9.43;5.60;;;;;;;18.27;100.00;100530.31;5052632;28;20463;-60
2023/06/30 00:15:38;;;;;;;8.57;5.75;;;;;;;18.33;100.00;100528.59;5052386;28;20057;-60
2023/06/30 00:18:05;;;;;;;10.93;4.88;;;;;;;18.26;100.00;100525.06;5052545;28;20492;-61
2023/06/30 00:20:33;;;;;;;11.15;5.07;;;;;;;18.29;100.00;100532.78;5052536;28;20045;-62
2023/06/30 00:23:00;;;;;;;10.82;5.63;;;;;;;18.24;100.00;100535.34;5052372;28;20045;-60
2023/06/30 00:25:27;;;;;;;7.60;6.00;;;;;;;18.22;100.00;100526.56;5052540;28;20049;-61
2023/06/30 00:27:53;;;;;;;8.45;5.90;;;;;;;18.20;100.00;100528.66;5051674;28;20079;-60
2023/06/30 00:30:20;;;;;;;9.57;6.63;;;;;;;18.16;100.00;100527.41;5052323;28;20554;-60
2023/06/30 00:32:46;;;;;;;16.08;9.15;;;;;;;18.15;100.00;100526.59;5052170;28;20099;-61
2023/06/30 00:35:13;;;;;;;15.68;9.15;;;;;;;18.13;100.00;100527.81;5051424;28;20094;-61
2023/06/30 00:37:39;;;;;;;16.02;10.38;;;;;;;18.07;100.00;100529.53;5052491;28;20511;-60
2023/06/30 00:40:06;;;;;;;14.82;9.38;;;;;;;17.99;100.00;100517.00;5051665;28;20045;-61
2023/06/30 00:42:33;;;;;;;18.08;11.52;;;;;;;17.88;100.00;100514.97;5051667;28;20051;-61
2023/06/30 00:44:59;;;;;;;18.33;10.93;;;;;;;17.85;100.00;100518.91;5052410;28;20084;-60
2023/06/30 00:47:26;;;;;;;18.65;11.70;;;;;;;17.82;100.00;100521.22;5052095;28;20040;-60
2023/06/30 00:49:53;;;;;;;15.30;10.23;;;;;;;17.85;100.00;100515.38;5051346;28;20136;-60
2023/06/30 00:52:19;;;;;;;17.63;10.50;;;;;;;17.89;100.00;100522.06;5051572;28;20049;-60
2023/06/30 00:54:46;;;;;;;18.05;11.50;;;;;;;17.85;100.00;100516.22;5052206;28;20102;-61
2023/06/30 00:57:13;;;;;;;18.33;12.00;;;;;;;17.79;100.00;100521.69;5051197;28;20092;-60
2023/06/30 00:59:39;;;;;;;14.13;10.70;;;;;;;17.76;100.00;100524.81;5051278;28;20095;-60
2023/06/30 01:02:14;;;;;;;17.65;11.52;;;;;;;17.67;100.00;100523.38;5051258;28;20555;-60
2023/06/30 01:08:21;;;;;;;22.63;13.37;;;;;;;17.27;100.00;100526.13;5051368;28;20047;-60
2023/06/30 01:10:49;;;;;;;24.38;15.32;;;;;;;17.13;100.00;100525.28;5051512;28;20083;-61
2023/06/30 01:13:17;;;;;;;21.45;14.43;;;;;;;17.06;100.00;100522.56;5051432;28;20041;-60
2023/06/30 01:15:45;;;;;;;21.35;14.55;;;;;;;16.99;100.00;100521.72;5051226;28;20463;-59
2023/06/30 01:18:15;;;;;;;24.50;14.73;;;;;;;16.94;100.00;100507.94;5051060;28;20118;-61
2023/06/30 01:20:42;;;;;;;24.90;15.45;;;;;;;16.89;100.00;100505.03;5051549;28;20045;-61
2023/06/30 01:23:35;;;;;;;25.05;15.90;;;;;;;16.86;100.00;100503.56;5050048;28;20068;-60
2023/06/30 01:26:02;;;;;;;25.55;15.93;;;;;;;16.84;100.00;100502.09;5043212;28;20052;-61
2023/06/30 01:28:33;;;;;;;25.33;16.55;;;;;;;16.84;100.00;100496.69;5051535;28;20044;-59
2023/06/30 01:31:00;;;;;;;24.70;16.65;;;;;;;16.82;100.00;100504.19;5051637;28;20044;-59
2023/06/30 01:33:28;;;;;;;23.83;15.90;;;;;;;16.81;100.00;100507.94;5052170;28;20501;-61
2023/06/30 01:35:54;;;;;;;24.58;16.60;;;;;;;16.78;100.00;100501.06;5051463;28;20041;-60
2023/06/30 01:38:21;;;;;;;25.77;16.58;;;;;;;16.71;100.00;100502.91;5051545;28;20045;-61
2023/06/30 01:40:48;;;;;;;26.08;17.48;;;;;;;16.72;100.00;100507.31;5051286;28;20076;-60
2023/06/30 01:43:16;;;;;;;25.55;17.15;;;;;;;16.67;100.00;100501.66;5050806;28;20389;-61
2023/06/30 01:45:42;;;;;;;25.23;17.55;;;;;;;16.67;100.00;100497.06;5050647;28;20562;-61
2023/06/30 01:48:09;;;;;;;28.92;18.17;;;;;;;16.64;100.00;100505.63;5051131;28;20129;-62
2023/06/30 01:50:37;;;;;;;26.67;17.88;;;;;;;16.55;100.00;100503.31;5050373;28;20075;-60
2023/06/30 01:53:04;;;;;;;26.08;18.33;;;;;;;16.57;100.00;100504.75;5050925;28;20099;-60
2023/06/30 01:55:31;;;;;;;25.30;17.63;;;;;;;16.53;100.00;100498.09;5050853;28;20045;-61
2023/06/30 01:57:58;;;;;;;24.75;17.52;;;;;;;16.57;100.00;100495.81;5051279;28;20065;-61
2023/06/30 02:00:24;;;;;;;25.02;18.00;;;;;;;16.52;100.00;100498.31;5050565;28;20106;-60
2023/06/30 02:02:51;;;;;;;30.42;18.15;;;;;;;16.50;100.00;100501.19;5050657;28;20048;-60
2023/06/30 02:05:17;;;;;;;26.55;18.42;;;;;;;16.52;100.00;100504.56;5050984;28;20103;-62
2023/06/30 02:07:44;;;;;;;27.38;18.88;;;;;;;16.46;100.00;100499.91;5050590;28;20048;-61
2023/06/30 02:10:11;;;;;;;27.70;18.02;;;;;;;16.49;100.00;100499.50;5050771;28;20045;-61
2023/06/30 02:12:37;;;;;;;26.08;18.75;;;;;;;16.37;100.00;100495.75;5050586;28;20091;-61
2023/06/30 02:15:04;;;;;;;30.33;18.90;;;;;;;16.46;100.00;100494.50;5050759;28;20385;-61
2023/06/30 02:17:32;;;;;;;30.30;17.80;;;;;;;16.39;100.00;100494.47;5050548;28;20477;-60
2023/06/30 02:20:00;;;;;;;32.00;19.52;;;;;;;16.42;100.00;100493.25;5050058;28;20045;-60
2023/06/30 02:22:27;;;;;;;29.17;18.75;;;;;;;16.39;100.00;100499.91;5051427;28;20051;-61
2023/06/30 02:24:55;;;;;;;27.38;19.00;;;;;;;16.41;100.00;100500.53;5050525;28;20071;-60
2023/06/30 02:27:22;;;;;;;24.05;16.58;;;;;;;16.37;100.00;100496.56;5050291;28;20052;-59
2023/06/30 02:29:50;;;;;;;29.40;18.67;;;;;;;16.39;100.00;100497.19;5050600;28;20100;-61
2023/06/30 02:32:16;;;;;;;27.10;19.27;;;;;;;16.41;100.00;100491.59;5050319;28;20551;-60
2023/06/30 02:34:43;;;;;;;31.13;18.27;;;;;;;16.31;100.00;100485.72;5049582;28;20421;-59
2023/06/30 02:37:09;;;;;;;25.38;17.67;;;;;;;16.40;100.00;100492.59;5050507;28;20049;-61
2023/06/30 02:39:36;;;;;;;27.80;19.35;;;;;;;16.37;100.00;100482.22;5050181;28;20566;-59
2023/06/30 02:42:03;;;;;;;28.60;19.95;;;;;;;16.27;100.00;100479.06;5050153;28;20107;-60
2023/06/30 02:44:29;;;;;;;27.92;19.30;;;;;;;16.29;100.00;100474.25;5050416;28;20079;-57
2023/06/30 02:46:56;;;;;;;26.88;18.33;;;;;;;16.27;100.00;100468.22;5050438;28;20072;-60
2023/06/30 02:49:23;;;;;;;30.20;20.20;;;;;;;16.08;100.00;100469.81;5049938;28;20048;-60
2023/06/30 02:51:49;;;;;;;30.42;19.30;;;;;;;15.98;100.00;100472.91;5050288;28;20110;-62
2023/06/30 02:54:16;;;;;;;29.52;20.08;;;;;;;16.11;100.00;100470.25;5048998;28;20497;-60
2023/06/30 02:56:42;;;;;;;28.20;20.08;;;;;;;15.97;100.00;100460.41;5050690;28;20124;-60
2023/06/30 02:59:09;;;;;;;29.42;20.35;;;;;;;15.95;100.00;100467.88;5053712;28;20045;-59
2023/06/30 03:01:35;;;;;;;28.95;20.02;;;;;;;15.91;100.00;100466.63;5053895;28;20131;-60
2023/06/30 03:04:03;;;;;;;29.52;20.23;;;;;;;15.94;100.00;100467.06;5054319;28;20099;-59
2023/06/30 03:06:31;;;;;;;28.23;20.70;;;;;;;16.00;100.00;100478.13;5053494;28;20044;-59
2023/06/30 03:08:57;;;;;;;31.38;19.95;;;;;;;15.90;100.00;100467.66;5054431;28;20045;-60
2023/06/30 03:11:25;;;;;;;40.42;22.20;;;;;;;15.83;100.00;100466.81;5054050;28;20124;-60
2023/06/30 03:13:52;;;;;;;28.58;20.23;;;;;;;15.88;100.00;100465.19;5086380;28;20052;-61
2023/06/30 03:16:18;;;;;;;31.42;21.70;;;;;;;16.00;100.00;100461.88;5053776;28;20041;-61
2023/06/30 03:18:45;;;;;;;33.22;21.33;;;;;;;15.89;100.00;100463.31;5054081;28;20102;-60
2023/06/30 03:21:11;;;;;;;36.30;21.35;;;;;;;15.82;100.00;100454.31;5053941;28;20041;-60
2023/06/30 03:23:40;;;;;;;30.27;20.33;;;;;;;15.92;100.00;100454.78;5053689;28;20077;-60
2023/06/30 03:26:06;;;;;;;30.98;19.92;;;;;;;15.92;100.00;100446.66;5053609;28;20049;-60
2023/06/30 03:28:33;;;;;;;33.22;20.95;;;;;;;15.84;100.00;100433.31;5053049;28;20489;-61
2023/06/30 03:30:59;;;;;;;29.00;20.13;;;;;;;15.85;100.00;100438.53;5053111;28;20045;-59
2023/06/30 03:33:26;;;;;;;32.22;21.38;;;;;;;15.93;100.00;100441.03;5054171;28;20216;-62
2023/06/30 03:35:53;;;;;;;29.10;20.52;;;;;;;15.84;100.00;100438.72;5053332;28;20068;-60
2023/06/30 03:38:19;;;;;;;28.98;20.52;;;;;;;15.85;100.00;100438.53;5053057;28;20129;-61
2023/06/30 03:40:46;;;;;;;29.88;20.40;;;;;;;15.82;100.00;100448.91;5052978;28;20049;-60
2023/06/30 03:43:13;;;;;;;30.60;20.83;;;;;;;15.88;100.00;100438.13;5051394;28;20097;-60
2023/06/30 03:45:40;;;;;;;29.92;20.08;;;;;;;15.88;100.00;100448.09;5053092;28;20053;-60
2023/06/30 03:48:06;;;;;;;35.10;21.58;;;;;;;15.92;100.00;100446.66;5052503;28;20075;-60
2023/06/30 03:50:33;;;;;;;28.45;21.95;;;;;;;15.94;100.00;100437.28;5053278;28;20071;-60
2023/06/30 03:52:59;;;;;;;30.25;20.90;;;;;;;15.93;100.00;100437.50;5052963;28;20045;-60
2023/06/30 03:55:26;;;;;;;30.30;20.10;;;;;;;15.97;100.00;100440.66;5053047;28;20049;-61
2023/06/30 03:57:53;;;;;;;31.00;20.25;;;;;;;16.00;100.00;100440.25;5052111;28;20546;-61
2023/06/30 04:00:20;;;;;;;28.17;19.65;;;;;;;16.05;100.00;100441.28;5052995;28;20172;-61
2023/06/30 04:02:47;;;;;;;29.90;20.58;;;;;;;16.01;100.00;100442.72;5052669;28;20055;-60
2023/06/30 04:05:13;;;;;;;30.42;20.27;;;;;;;16.01;100.00;100442.72;5052663;28;20041;-61
2023/06/30 04:07:40;;;;;;;34.92;24.10;;;;;;;15.97;100.00;100435.22;5052469;28;20560;-61
2023/06/30 04:10:07;;;;;;;37.60;25.40;;;;;;;16.01;100.00;100434.63;5052028;28;20408;-60
2023/06/30 04:12:33;;;;;;;33.88;21.48;;;;;;;15.99;100.00;100431.28;5052751;28;20463;-61
2023/06/30 04:15:00;;;;;;;32.40;22.20;;;;;;;16.10;100.00;100436.13;5052543;28;20412;-60
2023/06/30 04:17:26;;;;;;;31.88;21.02;;;;;;;16.11;100.00;100435.06;5052196;28;20041;-61
2023/06/30 04:19:53;;;;;;;31.17;20.63;;;;;;;16.21;100.00;100433.84;5052746;28;20049;-61
2023/06/30 04:22:20;;;;;;;30.70;19.95;;;;;;;16.18;100.00;100441.31;5052568;28;20107;-61
2023/06/30 04:24:47;;;;;;;31.60;20.55;;;;;;;16.25;100.00;100443.22;5052387;28;20095;-61
2023/06/30 04:27:13;;;;;;;33.33;20.70;;;;;;;16.25;100.00;100440.53;5052321;28;20451;-61
2023/06/30 04:29:40;;;;;;;32.00;20.90;;;;;;;16.32;100.00;100433.25;5051883;28;20080;-61
2023/06/30 04:32:06;;;;;;;29.95;21.98;;;;;;;16.30;100.00;100424.50;5052122;28;20049;-61
2023/06/30 04:34:34;;;;;;;27.02;19.33;;;;;;;16.32;100.00;100417.00;5051056;28;20041;-64
2023/06/30 04:37:01;;;;;;;27.95;20.17;;;;;;;16.36;100.00;100416.38;5052747;28;20040;-60
2023/06/30 04:39:27;;;;;;;27.88;19.00;;;;;;;16.40;100.00;100414.94;5052051;28;20075;-60
2023/06/30 04:41:54;;;;;;;30.15;19.88;;;;;;;16.48;100.00;100405.78;5051528;28;20088;-60
2023/06/30 04:44:21;;;;;;;30.38;19.55;;;;;;;16.50;100.00;100405.56;5051808;28;20053;-61
2023/06/30 04:46:47;;;;;;;30.73;20.40;;;;;;;16.62;100.00;100406.66;5051529;28;20513;-60
2023/06/30 04:49:14;;;;;;;31.08;20.58;;;;;;;16.58;100.00;100405.41;5051948;28;20056;-61
2023/06/30 04:51:41;;;;;;;25.95;18.48;;;;;;;16.56;100.00;100400.19;5051906;28;20055;-61
2023/06/30 04:54:07;;;;;;;31.00;19.00;;;;;;;16.73;100.00;100407.91;5052110;28;20041;-61
2023/06/30 04:56:34;;;;;;;26.45;18.58;;;;;;;16.73;100.00;100407.91;5051488;28;20060;-61
2023/06/30 04:59:01;;;;;;;27.27;19.45;;;;;;;16.79;100.00;100402.50;5051700;28;20093;-59
2023/06/30 05:01:27;;;;;;;27.50;18.05;;;;;;;16.80;100.00;100397.91;5052421;28;20044;-61
2023/06/30 05:03:54;;;;;;;28.00;19.25;;;;;;;16.93;100.00;100405.19;5050940;28;20174;-60
2023/06/30 05:06:21;;;;;;;30.00;18.77;;;;;;;16.87;100.00;100393.31;5051516;28;20501;-61
2023/06/30 05:08:47;;;;;;;25.05;17.02;;;;;;;16.82;100.00;100401.25;5051264;28;20497;-61
2023/06/30 05:11:14;;;;;;;25.10;16.63;;;;;;;16.80;100.00;100398.72;5051049;28;20045;-60
2023/06/30 05:13:40;;;;;;;24.83;17.77;;;;;;;16.92;100.00;100404.38;5051003;28;20076;-59
2023/06/30 05:16:07;;;;;;;28.02;18.00;;;;;;;17.01;100.00;100392.25;5050793;28;20444;-61
2023/06/30 05:18:33;;;;;;;26.88;17.83;;;;;;;17.00;100.00;100387.88;5051669;28;20072;-59
2023/06/30 05:21:00;;;;;;;25.60;17.63;;;;;;;17.01;100.00;100381.41;5050133;28;20099;-59
2023/06/30 05:23:27;;;;;;;24.42;17.45;;;;;;;16.97;100.00;100382.88;5051423;28;20382;-61
2023/06/30 05:25:53;;;;;;;25.10;16.90;;;;;;;17.17;100.00;100391.00;5050962;28;20091;-61
2023/06/30 05:28:20;;;;;;;22.60;15.95;;;;;;;17.05;100.00;100398.09;5051218;28;20057;-62
2023/06/30 05:30:46;;;;;;;20.88;15.23;;;;;;;17.31;100.00;100399.94;5050900;28;20052;-62
2023/06/30 05:33:13;;;;;;;22.63;15.13;;;;;;;17.40;100.00;100414.94;5051320;28;20083;-61
2023/06/30 05:35:39;;;;;;;25.58;15.73;;;;;;;17.44;100.00;100402.63;5050642;28;20488;-60
2023/06/30 05:38:06;;;;;;;24.55;15.60;;;;;;;17.59;100.00;100400.47;5050840;28;20553;-60
2023/06/30 05:40:32;;;;;;;23.50;16.38;;;;;;;17.64;100.00;100399.81;5050672;28;20098;-60
2023/06/30 05:42:59;;;;;;;24.55;17.88;;;;;;;17.70;100.00;100398.97;5051566;28;20527;-60
2023/06/30 05:45:25;;;;;;;28.98;18.15;;;;;;;17.75;100.00;100395.59;5050746;28;20040;-62
2023/06/30 05:47:52;;;;;;;20.60;14.63;;;;;;;17.78;100.00;100397.91;5050659;28;20073;-60
2023/06/30 05:50:21;;;;;;;20.75;13.98;;;;;;;17.92;100.00;100401.38;5050102;28;20052;-60
2023/06/30 05:52:48;;;;;;;23.23;16.25;;;;;;;17.93;100.00;100412.03;5050552;28;20139;-60
2023/06/30 05:55:15;;;;;;;26.52;16.33;;;;;;;18.30;100.00;100404.09;5050185;28;20045;-61
2023/06/30 05:57:42;;;;;;;19.48;13.35;;;;;;;18.27;100.00;100404.53;5049925;28;20049;-61
2023/06/30 06:00:09;;;;;;;20.75;14.60;;;;;;;18.39;100.00;100410.13;5049169;28;20045;-60
2023/06/30 06:02:35;;;;;;;22.60;15.63;;;;;;;18.43;100.00;100405.91;5050518;28;20094;-61
2023/06/30 06:05:02;;;;;;;23.00;17.15;;;;;;;18.40;100.00;100409.88;5050110;28;20040;-61
2023/06/30 06:07:29;;;;;;;22.80;15.02;;;;;;;18.29;100.00;100416.84;5050833;28;20060;-60
2023/06/30 06:09:55;;;;;;;20.63;14.23;;;;;;;18.30;100.00;100415.78;5050466;28;20040;-62
2023/06/30 06:12:22;;;;;;;22.20;14.35;;;;;;;18.27;100.00;100409.97;5049024;28;20068;-63
2023/06/30 06:14:49;;;;;;;23.17;15.45;;;;;;;18.37;100.00;100410.31;5049267;28;20049;-62
2023/06/30 06:17:15;;;;;;;22.95;15.43;;;;;;;18.49;100.00;100418.63;5050968;28;20099;-64
2023/06/30 06:19:42;;;;;;;21.08;15.05;;;;;;;18.43;100.00;100420.31;5050261;28;20049;-62
2023/06/30 06:22:08;;;;;;;19.08;14.00;;;;;;;18.49;100.00;100419.44;5049998;28;20072;-62
2023/06/30 06:24:35;;;;;;;22.40;14.48;;;;;;;18.57;100.00;100417.50;5049693;28;20072;-64
2023/06/30 06:27:01;;;;;;;20.27;14.90;;;;;;;18.49;100.00;100424.88;5050468;28;20580;-63
2023/06/30 06:29:28;;;;;;;28.90;16.65;;;;;;;18.68;100.00;100435.81;5050883;28;20132;-62
2023/06/30 06:31:54;;;;;;;19.45;14.00;;;;;;;18.70;100.00;100425.56;5048724;28;20099;-64
2023/06/30 06:34:21;;;;;;;23.85;15.88;;;;;;;18.63;100.00;100431.03;5050443;28;20512;-63
2023/06/30 06:36:48;;;;;;;23.23;16.17;;;;;;;18.63;100.00;100413.91;5048937;28;20110;-63
2023/06/30 06:39:15;;;;;;;22.13;15.55;;;;;;;18.69;100.00;100419.31;5049819;28;20041;-63
2023/06/30 06:41:41;;;;;;;28.58;14.52;;;;;;;18.88;100.00;100417.47;5050374;28;20558;-64
2023/06/30 06:44:08;;;;;;;22.92;15.63;;;;;;;18.95;100.00;100422.88;5049500;28;20045;-63
2023/06/30 06:46:34;;;;;;;22.77;15.48;;;;;;;18.96;100.00;100425.34;5049325;28;20044;-62
2023/06/30 06:49:01;;;;;;;38.40;15.95;;;;;;;19.00;100.00;100426.59;5049284;28;20055;-63
2023/06/30 06:51:27;;;;;;;24.10;16.13;;;;;;;19.06;100.00;100429.47;5050768;28;20127;-62
2023/06/30 06:53:54;;;;;;;21.80;15.52;;;;;;;18.79;100.00;100424.22;5049426;28;20137;-62
2023/06/30 06:56:21;;;;;;;24.35;15.40;;;;;;;18.75;100.00;100436.59;5049220;28;20555;-61
2023/06/30 06:58:47;;;;;;;22.55;14.88;;;;;;;18.75;100.00;100433.88;5048821;28;20053;-63
2023/06/30 07:01:14;;;;;;;24.92;15.52;;;;;;;18.80;100.00;100431.34;5048968;28;20041;-62
2023/06/30 07:03:41;;;;;;;27.25;16.55;;;;;;;18.66;100.00;100440.66;5049355;28;20075;-64
2023/06/30 07:06:07;;;;;;;22.85;15.35;;;;;;;18.65;100.00;100445.22;5049112;28;20099;-63
2023/06/30 07:08:35;;;;;;;26.20;16.30;;;;;;;18.56;100.00;100430.28;5049585;28;20072;-63
2023/06/30 07:11:03;;;;;;;22.17;15.13;;;;;;;18.47;100.00;100437.00;5049474;28;20095;-63
2023/06/30 07:13:30;;;;;;;22.25;16.05;;;;;;;18.53;100.00;100439.69;5050247;28;20048;-63
2023/06/30 07:15:56;;;;;;;25.40;15.88;;;;;;;18.42;100.00;100437.69;5049983;28;20049;-61
2023/06/30 07:18:23;;;;;;;24.73;15.02;;;;;;;18.41;100.00;100437.88;5049539;28;20044;-62
2023/06/30 07:20:52;;;;;;;24.00;15.38;;;;;;;18.24;100.00;100432.16;5049036;28;20511;-63
2023/06/30 07:23:19;;;;;;;24.95;15.88;;;;;;;18.09;100.00;100440.53;5049643;28;20459;-62
2023/06/30 07:25:46;;;;;;;26.63;15.30;;;;;;;18.15;100.00;100434.28;5035403;28;20048;-63
2023/06/30 07:28:14;;;;;;;33.60;16.65;;;;;;;18.20;100.00;100428.19;5049233;28;20040;-62
2023/06/30 07:30:41;;;;;;;26.75;14.73;;;;;;;18.23;100.00;100422.31;5049638;28;20099;-63
2023/06/30 07:33:12;;;;;;;23.50;14.17;;;;;;;18.23;100.00;100416.91;5050112;28;20044;-63
2023/06/30 07:35:39;;;;;;;24.33;15.07;;;;;;;18.22;100.00;100417.97;5049264;28;20044;-62
2023/06/30 07:38:05;;;;;;;22.65;15.30;;;;;;;18.33;100.00;100419.97;5049511;28;20420;-62
2023/06/30 07:40:32;;;;;;;23.15;14.73;;;;;;;18.32;100.00;100421.03;5049630;28;20099;-63
2023/06/30 07:43:18;;;;;;;22.83;15.43;;;;;;;18.41;100.00;100427.88;5051121;28;20410;-63
2023/06/30 07:45:45;;;;;;;23.80;15.00;;;;;;;18.46;100.00;100428.03;5052347;28;20083;-63
2023/06/30 07:48:12;;;;;;;22.45;14.82;;;;;;;18.32;100.00;100423.75;5052788;28;20044;-63
2023/06/30 07:50:39;;;;;;;23.20;15.60;;;;;;;18.35;100.00;100428.75;5051848;28;20045;-63
2023/06/30 07:53:16;;;;;;;23.17;15.18;;;;;;;18.44;100.00;100426.56;5052505;28;20047;-63
2023/06/30 07:55:43;;;;;;;26.52;13.93;;;;;;;18.64;100.00;100431.88;5052915;28;20048;-63
2023/06/30 07:58:10;;;;;;;20.33;15.00;;;;;;;18.61;100.00;100432.31;5052412;28;20048;-64
2023/06/30 08:00:36;;;;;;;22.67;14.30;;;;;;;18.65;100.00;100433.53;5053065;28;20102;-63
2023/06/30 08:03:03;;;;;;;21.38;15.85;;;;;;;18.62;100.00;100442.97;5052738;28;20496;-64
2023/06/30 08:05:30;;;;;;;26.90;15.73;;;;;;;18.40;100.00;100436.22;5053072;28;20488;-64
2023/06/30 08:07:56;;;;;;;22.20;15.05;;;;;;;18.44;100.00;100443.69;5052506;28;20461;-65
2023/06/30 08:10:23;;;;;;;18.02;13.93;;;;;;;18.54;100.00;100448.66;5052341;28;20408;-64
2023/06/30 08:12:50;;;;;;;29.38;16.65;;;;;;;18.67;100.00;100443.13;5052184;28;20057;-65
2023/06/30 08:15:16;;;;;;;22.05;14.55;;;;;;;18.79;100.00;100438.66;5052436;28;20037;-63
2023/06/30 08:17:43;;;;;;;21.38;14.32;;;;;;;18.95;100.00;100437.28;5052435;28;20045;-64
2023/06/30 08:20:22;;;;;;;27.05;16.77;;;;;;;19.10;100.00;100436.13;5052219;28;20473;-64
2023/06/30 08:22:50;;;;;;;21.58;14.45;;;;;;;19.08;100.00;100440.97;5052419;28;20079;-64
2023/06/30 08:25:21;;;;;;;23.40;15.38;;;;;;;19.43;100.00;100433.91;5051089;28;20045;-64
2023/06/30 08:27:48;;;;;;;24.85;14.90;;;;;;;19.33;100.00;100435.47;5051753;28;20049;-63
2023/06/30 08:30:15;;;;;;;23.58;15.95;;;;;;;19.35;100.00;100428.75;5051712;28;20497;-64
2023/06/30 08:32:42;;;;;;;23.90;16.20;;;;;;;19.43;100.00;100431.19;5051280;28;20456;-62
2023/06/30 08:35:09;;;;;;;22.73;16.13;;;;;;;19.44;100.00;100432.84;5028705;28;20041;-63
2023/06/30 08:37:38;;;;;;;23.20;15.55;;;;;;;19.41;100.00;100437.88;5053051;28;20124;-63
2023/06/30 08:40:05;;;;;;;25.50;15.70;;;;;;;19.53;100.00;100435.28;5052783;28;20064;-64
2023/06/30 08:42:36;;;;;;;25.00;15.45;;;;;;;20.02;100.00;100438.88;5053240;28;20509;-63
2023/06/30 08:45:03;;;;;;;23.92;15.85;;;;;;;20.35;100.00;100439.28;5052499;28;20047;-62
2023/06/30 08:47:32;;;;;;;26.05;15.45;;;;;;;20.25;100.00;100438.13;5053257;28;20045;-63
2023/06/30 08:49:58;;;;;;;21.48;15.15;;;;;;;20.47;100.00;100430.31;5052770;28;20045;-64
2023/06/30 08:52:25;;;;;;;24.58;15.25;;;;;;;20.77;100.00;100439.28;5053136;28;20041;-63
2023/06/30 08:54:53;;;;;;;25.02;14.95;;;;;;;20.87;100.00;100442.25;5051665;28;20091;-63
2023/06/30 08:57:20;;;;;;;26.60;15.38;;;;;;;20.62;100.00;100442.44;5052215;28;20546;-64
2023/06/30 08:59:47;;;;;;;23.83;16.05;;;;;;;20.59;100.00;100439.34;5052457;28;20045;-63
2023/06/30 09:02:14;;;;;;;23.90;15.55;;;;;;;20.54;100.00;100448.22;5052394;28;20069;-63
2023/06/30 09:04:42;;;;;;;22.88;15.48;;;;;;;20.37;100.00;100448.03;5052556;28;20048;-63
2023/06/30 09:07:15;;;;;;;24.23;16.08;;;;;;;20.32;100.00;100442.44;5051536;28;20493;-64
2023/06/30 09:09:43;;;;;;;24.02;16.13;;;;;;;20.23;100.00;100441.09;5052178;28;20049;-64
2023/06/30 09:12:10;;;;;;;31.23;15.50;;;;;;;20.04;100.00;100436.75;5052220;28;20681;-64
2023/06/30 09:14:40;;;;;;;23.58;16.30;;;;;;;19.79;100.00;100434.97;5051961;28;20132;-64
2023/06/30 09:17:07;;;;;;;25.20;15.55;;;;;;;19.81;100.00;100440.19;5051657;28;20052;-64
2023/06/30 09:19:35;;;;;;;21.20;14.75;;;;;;;19.63;100.00;100439.13;5052156;28;20055;-64
2023/06/30 09:22:05;;;;;;;28.45;17.25;;;;;;;19.40;100.00;100431.63;5052146;28;20037;-62
2023/06/30 09:24:51;;;;;;;21.02;15.50;;;;;;;19.20;100.00;100437.25;5051900;28;20411;-61
2023/06/30 09:27:18;;;;;;;28.25;18.58;;;;;;;19.00;100.00;100433.94;5051209;28;20107;-64
2023/06/30 09:29:54;;;;;;;27.52;17.55;;;;;;;18.78;100.00;100436.16;5050054;28;20052;-65
2023/06/30 09:32:31;;;;;;;25.67;18.42;;;;;;;18.72;100.00;100434.31;5051999;28;20445;-64
2023/06/30 09:35:06;;;;;;;26.52;16.65;;;;;;;18.82;100.00;100433.81;5051671;28;20486;-64
2023/06/30 09:37:42;;;;;;;32.25;19.15;;;;;;;18.93;100.00;100422.25;5051399;28;20064;-64
2023/06/30 09:40:14;;;;;;;32.78;18.20;;;;;;;18.89;100.00;100429.16;5051512;28;20421;-64
2023/06/30 09:42:43;;;;;;;30.13;19.65;;;;;;;19.01;100.00;100430.97;5051092;28;20049;-64
2023/06/30 09:45:13;;;;;;;26.55;18.38;;;;;;;19.11;100.00;100426.91;5051060;28;20049;-64
2023/06/30 09:47:41;;;;;;;32.38;20.85;;;;;;;19.05;100.00;100427.81;5050823;28;20044;-63
2023/06/30 09:50:08;;;;;;;29.15;19.67;;;;;;;19.19;100.00;100422.00;5051021;28;20056;-63
2023/06/30 09:52:37;;;;;;;32.90;22.30;;;;;;;19.29;100.00;100424.22;5051669;28;20467;-63
2023/06/30 09:55:10;;;;;;;35.10;22.90;;;;;;;19.38;100.00;100422.88;5051679;28;20515;-63
2023/06/30 09:57:39;;;;;;;30.10;21.08;;;;;;;19.54;100.00;100437.75;5051255;28;20056;-62
2023/06/30 10:00:07;;;;;;;34.60;20.98;;;;;;;19.63;100.00;100433.69;5050591;28;20099;-61
2023/06/30 10:02:43;;;;;;;39.20;23.92;;;;;;;19.52;100.00;100425.44;5051331;28;20099;-60
2023/06/30 10:05:10;;;;;;;32.78;20.63;;;;;;;19.72;100.00;100434.22;5050513;28;20754;-60
2023/06/30 10:07:40;;;;;;;31.95;22.42;;;;;;;19.62;100.00;100439.34;5051062;28;20477;-61
2023/06/30 10:10:11;;;;;;;36.58;23.30;;;;;;;19.44;100.00;100437.44;5050858;28;20045;-63
2023/06/30 10:12:41;;;;;;;30.00;20.80;;;;;;;19.43;100.00;100433.06;5051704;28;20090;-60
2023/06/30 10:15:10;;;;;;;35.40;22.02;;;;;;;19.32;100.00;100440.09;5051205;28;20055;-61
2023/06/30 10:17:43;;;;;;;31.00;21.38;;;;;;;19.39;100.00;100440.03;5051041;28;20094;-60
2023/06/30 10:20:10;;;;;;;36.63;25.00;;;;;;;19.11;100.00;100435.06;5049862;28;20513;-60
2023/06/30 10:22:37;;;;;;;39.75;24.52;;;;;;;19.14;100.00;100438.19;5050262;28;20049;-60
2023/06/30 10:25:09;;;;;;;36.30;24.15;;;;;;;19.11;100.00;100444.06;5049985;28;20041;-60
2023/06/30 10:27:36;;;;;;;;;;;;;;;19.00;100.00;100448.34;5050295;28;20076;-61
2023/06/30 10:30:03;;;;;;;34.92;22.73;;;;;;;18.88;100.00;100446.53;5050633;28;19943;-61
2023/06/30 10:32:29;;;;;;;37.83;22.33;;;;;;;18.93;100.00;100431.25;5050769;28;20048;-60
2023/06/30 10:34:58;;;;;;;35.90;24.08;;;;;;;18.89;100.00;100440.03;5050030;28;20132;-59
2023/06/30 10:37:26;;;;;;;33.45;23.30;;;;;;;18.70;100.00;100441.88;5050385;28;20055;-60
2023/06/30 10:39:53;;;;;;;34.55;22.92;;;;;;;18.64;100.00;100434.59;5050792;28;20060;-60
2023/06/30 10:42:20;;;;;;;35.00;23.20;;;;;;;18.59;100.00;100440.69;5050773;28;20098;-61
2023/06/30 10:44:49;;;;;;;33.17;22.67;;;;;;;18.57;100.00;100442.78;5049871;28;20041;-61
2023/06/30 10:47:22;;;;;;;34.90;21.23;;;;;;;18.55;100.00;100434.88;5049939;28;20082;-61
2023/06/30 10:49:53;;;;;;;31.70;21.42;;;;;;;18.55;100.00;100434.88;5050684;28;20045;-60
2023/06/30 10:52:27;;;;;;;31.25;20.77;;;;;;;18.34;100.00;100427.06;5050943;28;20048;-59
2023/06/30 10:54:54;;;;;;;30.42;20.23;;;;;;;18.55;100.00;100431.34;5050785;28;20051;-60
2023/06/30 10:57:25;;;;;;;29.65;19.02;;;;;;;18.47;100.00;100437.84;5050317;28;20047;-60
2023/06/30 11:00:07;;;;;;;30.20;20.52;;;;;;;18.63;100.00;100441.09;5050620;28;20436;-60
2023/06/30 11:02:34;;;;;;;31.80;19.88;;;;;;;18.57;100.00;100433.81;5049752;28;20456;-60
2023/06/30 11:05:25;;;;;;;32.70;20.52;;;;;;;18.52;100.00;100438.03;5050681;28;20052;-60
2023/06/30 11:08:09;;;;;;;32.40;22.75;;;;;;;18.48;100.00;100436.81;5049476;28;20071;-61